Terminal Aerodrome Forecast
Issued by NWS

Home | Current Version | Previous Version | Graphics & Text | Print | Product List | Glossary On
Versions: 1 2 3 4 5 6 7 8 9 10 11 12 13 14 15 16 17 18 19 20 21 22 23 24 25 26 27 28 29 30 31 32 33
000
FTUS43 KBIS 222226 AAB
TAFDIK
TAF AMD
KDIK 222226Z 2222/2318 36009KT P6SM VCSH OVC008
     FM230000 02008KT P6SM OVC015
     FM230300 04007KT 3SM BR OVC008
     FM230700 07007KT 1SM BR OVC005
     FM231700 07010KT 3SM BR OVC010=

USA.gov is the U.S. government's official web portal to all federal, state and local government web resources and services.